createdAt,value
2023-02-13T00:00:04.288Z,85.87
2023-02-13T00:01:04.335Z,85.87
2023-02-13T00:02:04.321Z,85.97
2023-02-13T00:03:04.227Z,85.87
2023-02-13T00:04:04.261Z,85.87
2023-02-13T00:05:04.238Z,85.87
2023-02-13T00:06:04.248Z,85.97
2023-02-13T00:07:04.202Z,86.08
2023-02-13T00:08:04.207Z,86.43
2023-02-13T00:09:06.349Z,86.49
2023-02-13T00:10:04.146Z,86.63
2023-02-13T00:11:04.178Z,86.60
2023-02-13T00:12:04.135Z,86.49
2023-02-13T00:13:04.154Z,86.39
2023-02-13T00:14:04.114Z,86.39
2023-02-13T00:15:04.092Z,86.29
2023-02-13T00:16:04.144Z,86.32
2023-02-13T00:17:04.112Z,86.43
2023-02-13T00:18:04.049Z,86.43
2023-02-13T00:19:04.068Z,86.43
2023-02-13T00:20:04.025Z,86.53
2023-02-13T00:21:04.040Z,86.63
2023-02-13T00:22:04.032Z,86.63
2023-02-13T00:23:04.004Z,86.49
2023-02-13T00:24:03.985Z,86.39
2023-02-13T00:25:03.985Z,86.49
2023-02-13T00:26:03.995Z,86.60
2023-02-13T00:27:03.991Z,86.49
2023-02-13T00:28:03.955Z,86.49
2023-02-13T00:29:03.935Z,86.49
2023-02-13T00:30:03.934Z,86.63
2023-02-13T00:31:04.039Z,86.74
2023-02-13T00:32:04.031Z,86.74
2023-02-13T00:33:03.903Z,86.84
2023-02-13T00:34:03.872Z,86.84
2023-02-13T00:35:03.887Z,86.80
2023-02-13T00:36:03.839Z,86.74
2023-02-13T00:37:03.874Z,86.74
2023-02-13T00:38:03.822Z,86.74
2023-02-13T00:39:03.791Z,86.63
2023-02-13T00:40:03.805Z,86.74
2023-02-13T00:41:03.768Z,86.84
2023-02-13T00:42:03.799Z,86.94
2023-02-13T00:43:03.744Z,86.84
2023-02-13T00:44:03.782Z,86.84
2023-02-13T00:45:03.732Z,86.84
2023-02-13T00:46:03.792Z,86.74
2023-02-13T00:47:03.720Z,86.74
2023-02-13T00:48:03.708Z,86.74
2023-02-13T00:49:03.722Z,86.70
2023-02-13T00:50:03.659Z,86.63
2023-02-13T00:51:03.668Z,86.63
2023-02-13T00:52:03.663Z,86.74
2023-02-13T00:53:03.655Z,86.74
2023-02-13T00:54:03.658Z,86.74
2023-02-13T00:55:03.640Z,86.84
2023-02-13T00:56:03.591Z,86.84
2023-02-13T00:57:03.603Z,86.74
2023-02-13T00:58:03.591Z,86.74
2023-02-13T00:59:03.561Z,86.63
2023-02-13T01:00:03.589Z,86.53
2023-02-13T01:01:03.531Z,86.49
2023-02-13T01:02:03.542Z,86.49
2023-02-13T01:03:03.520Z,86.39
2023-02-13T01:04:03.579Z,86.39
2023-02-13T01:05:03.519Z,86.39
2023-02-13T01:06:03.477Z,86.49
2023-02-13T01:07:03.511Z,86.49
2023-02-13T01:08:03.477Z,86.60
2023-02-13T01:09:03.465Z,86.53
2023-02-13T01:10:03.448Z,86.53
2023-02-13T01:11:03.424Z,86.53
2023-02-13T01:12:03.451Z,86.53
2023-02-13T01:13:03.395Z,86.63
2023-02-13T01:14:03.401Z,86.63
2023-02-13T01:15:03.421Z,86.74
2023-02-13T01:16:03.415Z,86.74
2023-02-13T01:17:03.364Z,86.63
2023-02-13T01:18:03.373Z,86.63
2023-02-13T01:19:03.355Z,86.74
2023-02-13T01:20:03.312Z,86.84
2023-02-13T01:21:03.355Z,86.84
2023-02-13T01:22:03.308Z,86.84
2023-02-13T01:23:03.286Z,86.84
2023-02-13T01:24:03.255Z,86.63
2023-02-13T01:25:03.282Z,86.74
2023-02-13T01:26:03.270Z,86.74
2023-02-13T01:27:03.243Z,86.74
2023-02-13T01:28:03.247Z,86.63
2023-02-13T01:29:03.227Z,86.53
2023-02-13T01:30:03.209Z,86.53
2023-02-13T01:31:03.598Z,86.63
2023-02-13T01:32:03.185Z,86.63
2023-02-13T01:33:03.159Z,86.63
2023-02-13T01:34:03.166Z,86.63
2023-02-13T01:35:03.173Z,86.74
2023-02-13T01:36:03.116Z,86.63
2023-02-13T01:37:03.110Z,86.70
2023-02-13T01:38:03.113Z,86.70
2023-02-13T01:39:03.129Z,86.70
2023-02-13T01:40:03.093Z,86.60
2023-02-13T01:41:03.076Z,86.60
2023-02-13T01:42:03.072Z,86.49
2023-02-13T01:43:03.043Z,86.49
2023-02-13T01:44:03.093Z,86.60
2023-02-13T01:45:03.053Z,86.60
2023-02-13T01:46:03.021Z,86.60
2023-02-13T01:47:03.000Z,86.60
2023-02-13T01:48:04.168Z,86.49
2023-02-13T01:49:02.998Z,86.49
2023-02-13T01:50:02.956Z,86.49
2023-02-13T01:51:02.960Z,86.63
2023-02-13T01:52:02.922Z,86.63
2023-02-13T01:53:02.903Z,86.63
2023-02-13T01:54:02.929Z,86.74
2023-02-13T01:55:02.936Z,86.84
2023-02-13T01:56:02.895Z,86.94
2023-02-13T01:57:02.876Z,86.94
2023-02-13T01:58:02.880Z,87.05
2023-02-13T01:59:02.857Z,87.05
2023-02-13T02:00:02.832Z,87.05
2023-02-13T02:01:02.840Z,87.05
2023-02-13T02:02:02.942Z,87.05
2023-02-13T02:03:02.786Z,87.15
2023-02-13T02:04:02.777Z,87.15
2023-02-13T02:05:02.772Z,87.15
2023-02-13T02:06:02.767Z,87.26
2023-02-13T02:07:02.778Z,87.26
2023-02-13T02:08:02.758Z,87.35
2023-02-13T02:09:02.727Z,87.35
2023-02-13T02:10:02.750Z,87.35
2023-02-13T02:11:02.687Z,87.15
2023-02-13T02:12:02.693Z,87.05
2023-02-13T02:13:02.756Z,87.05
2023-02-13T02:14:02.671Z,87.15
2023-02-13T02:15:02.656Z,87.26
2023-02-13T02:16:02.692Z,87.15
2023-02-13T02:17:02.652Z,87.26
2023-02-13T02:18:02.627Z,87.35
2023-02-13T02:19:02.656Z,87.46
2023-02-13T02:20:02.620Z,87.46
2023-02-13T02:21:02.605Z,87.46
2023-02-13T02:22:02.563Z,87.46
2023-02-13T02:23:02.572Z,87.35
2023-02-13T02:24:02.586Z,87.46
2023-02-13T02:25:02.528Z,87.56
2023-02-13T02:26:02.528Z,87.60
2023-02-13T02:27:02.544Z,87.71
2023-02-13T02:28:02.546Z,87.81
2023-02-13T02:29:02.514Z,88.02
2023-02-13T02:30:02.489Z,88.12
2023-02-13T02:31:02.611Z,88.22
2023-02-13T02:32:02.451Z,88.32
2023-02-13T02:33:02.465Z,88.43
2023-02-13T02:34:02.436Z,88.39
2023-02-13T02:35:02.431Z,88.39
2023-02-13T02:36:02.444Z,88.29
2023-02-13T02:37:02.514Z,88.32
2023-02-13T02:38:02.404Z,88.43
2023-02-13T02:39:02.409Z,88.43
2023-02-13T02:40:02.408Z,88.43
2023-02-13T02:41:02.427Z,88.43
2023-02-13T02:42:02.332Z,88.53
2023-02-13T02:43:02.312Z,88.43
2023-02-13T02:44:02.335Z,88.43
2023-02-13T02:45:02.298Z,88.53
2023-02-13T02:46:02.324Z,88.64
2023-02-13T02:47:02.272Z,88.59
2023-02-13T02:48:02.297Z,88.53
2023-02-13T02:49:02.254Z,88.53
2023-02-13T02:50:02.315Z,88.43
2023-02-13T02:51:02.277Z,88.43
2023-02-13T02:52:02.250Z,88.43
2023-02-13T02:53:02.223Z,88.43
2023-02-13T02:54:02.180Z,88.53
2023-02-13T02:55:02.176Z,88.64
2023-02-13T02:56:02.232Z,88.64
2023-02-13T02:57:02.169Z,88.64
2023-02-13T02:58:02.148Z,88.64
2023-02-13T02:59:02.137Z,88.74
2023-02-13T03:00:02.101Z,88.64
2023-02-13T03:01:02.117Z,88.70
2023-02-13T03:02:02.133Z,88.64
2023-02-13T03:03:02.102Z,88.64
2023-02-13T03:04:02.143Z,88.64
2023-02-13T03:05:02.057Z,88.74
2023-02-13T03:06:02.067Z,88.64
2023-02-13T03:07:02.054Z,88.74
2023-02-13T03:08:02.025Z,88.74
2023-02-13T03:09:02.020Z,88.84
2023-02-13T03:10:02.021Z,88.84
2023-02-13T03:11:02.024Z,88.95
2023-02-13T03:12:01.970Z,89.05
2023-02-13T03:13:01.941Z,89.15
2023-02-13T03:14:01.966Z,89.15
2023-02-13T03:15:01.948Z,89.25
2023-02-13T03:16:01.965Z,89.25
2023-02-13T03:17:01.936Z,89.15
2023-02-13T03:18:01.914Z,89.05
2023-02-13T03:19:01.906Z,88.95
2023-02-13T03:20:01.903Z,88.84
2023-02-13T03:21:01.907Z,88.74
2023-02-13T03:22:01.868Z,88.64
2023-02-13T03:23:01.838Z,88.32
2023-02-13T03:24:01.828Z,87.92
2023-02-13T03:25:01.843Z,87.50
2023-02-13T03:26:01.807Z,87.29
2023-02-13T03:27:01.787Z,86.88
2023-02-13T03:28:01.831Z,86.47
2023-02-13T03:29:01.759Z,86.05
2023-02-13T03:30:01.787Z,85.75
2023-02-13T03:31:01.788Z,85.75
2023-02-13T03:32:01.736Z,85.75
2023-02-13T03:33:01.762Z,85.85
2023-02-13T03:34:01.772Z,85.85
2023-02-13T03:35:01.685Z,85.95
2023-02-13T03:36:01.693Z,85.85
2023-02-13T03:37:01.660Z,85.85
2023-02-13T03:38:01.699Z,85.75
2023-02-13T03:39:01.702Z,85.75
2023-02-13T03:40:01.654Z,85.75
2023-02-13T03:41:01.624Z,85.64
2023-02-13T03:42:01.625Z,85.64
2023-02-13T03:43:01.593Z,85.64
2023-02-13T03:44:01.613Z,85.64
2023-02-13T03:45:01.606Z,85.64
2023-02-13T03:46:01.598Z,85.64
2023-02-13T03:47:01.538Z,85.64
2023-02-13T03:48:01.565Z,85.75
2023-02-13T03:49:01.553Z,85.85
2023-02-13T03:50:01.534Z,85.85
2023-02-13T03:51:01.504Z,85.95
2023-02-13T03:52:01.517Z,85.95
2023-02-13T03:53:01.479Z,85.95
2023-02-13T03:54:01.483Z,85.95
2023-02-13T03:55:01.464Z,85.85
2023-02-13T03:56:01.444Z,85.54
2023-02-13T03:57:01.461Z,85.33
2023-02-13T03:58:01.415Z,85.13
2023-02-13T03:59:01.433Z,84.92
2023-02-13T04:00:01.405Z,84.92
2023-02-13T04:01:01.408Z,84.72
2023-02-13T04:02:01.464Z,84.61
2023-02-13T04:03:01.391Z,84.65
2023-02-13T04:04:01.386Z,84.65
2023-02-13T04:05:01.386Z,84.86
2023-02-13T04:06:01.335Z,84.86
2023-02-13T04:07:01.318Z,84.86
2023-02-13T04:08:01.307Z,84.75
2023-02-13T04:09:01.288Z,84.75
2023-02-13T04:10:01.278Z,84.75
2023-02-13T04:11:01.296Z,84.86
2023-02-13T04:12:01.244Z,84.96
2023-02-13T04:13:01.238Z,84.96
2023-02-13T04:14:01.231Z,84.96
2023-02-13T04:15:01.236Z,84.75
2023-02-13T04:16:01.186Z,84.65
2023-02-13T04:17:01.264Z,84.75
2023-02-13T04:18:01.199Z,84.55
2023-02-13T04:19:01.155Z,84.65
2023-02-13T04:20:01.146Z,84.65
2023-02-13T04:21:01.137Z,84.55
2023-02-13T04:22:01.143Z,84.65
2023-02-13T04:23:01.160Z,84.75
2023-02-13T04:24:01.111Z,84.75
2023-02-13T04:25:01.129Z,84.86
2023-02-13T04:26:01.088Z,84.96
2023-02-13T04:27:01.118Z,85.06
2023-02-13T04:28:01.125Z,85.17
2023-02-13T04:29:01.054Z,85.17
2023-02-13T04:30:01.035Z,85.17
2023-02-13T04:31:01.628Z,85.21
2023-02-13T04:32:01.059Z,85.21
2023-02-13T04:33:01.049Z,85.06
2023-02-13T04:34:00.983Z,85.10
2023-02-13T04:35:00.977Z,84.79
2023-02-13T04:36:00.973Z,84.07
2023-02-13T04:37:00.967Z,84.17
2023-02-13T04:38:00.976Z,84.28
2023-02-13T04:39:00.937Z,84.38
2023-02-13T04:40:00.912Z,84.28
2023-02-13T04:41:00.928Z,84.17
2023-02-13T04:42:00.903Z,84.07
2023-02-13T04:43:00.924Z,84.17
2023-02-13T04:44:00.864Z,84.28
2023-02-13T04:45:00.886Z,84.17
2023-02-13T04:46:00.956Z,84.17
2023-02-13T04:47:00.841Z,84.28
2023-02-13T04:48:00.834Z,84.28
2023-02-13T04:49:00.831Z,84.38
2023-02-13T04:50:00.800Z,84.28
2023-02-13T04:51:00.838Z,84.28
2023-02-13T04:52:00.785Z,84.28
2023-02-13T04:53:00.761Z,84.28
2023-02-13T04:54:00.782Z,84.38
2023-02-13T04:55:00.765Z,84.31
2023-02-13T04:56:00.738Z,84.42
2023-02-13T04:57:00.731Z,84.52
2023-02-13T04:58:00.708Z,84.42
2023-02-13T04:59:00.690Z,84.42
2023-02-13T05:00:00.675Z,84.31
2023-02-13T05:01:00.769Z,84.21
2023-02-13T05:02:00.683Z,84.21
2023-02-13T05:03:00.654Z,84.21
2023-02-13T05:04:00.612Z,84.21
2023-02-13T05:05:00.603Z,84.11
2023-02-13T05:06:00.648Z,84.11
2023-02-13T05:07:00.624Z,84.21
2023-02-13T05:08:00.604Z,84.11
2023-02-13T05:09:00.560Z,84.31
2023-02-13T05:10:00.560Z,84.31
2023-02-13T05:11:00.690Z,84.21
2023-02-13T05:12:00.520Z,84.25
2023-02-13T05:13:00.568Z,84.45
2023-02-13T05:14:00.506Z,84.45
2023-02-13T05:15:00.483Z,84.25
2023-02-13T05:16:00.547Z,84.15
2023-02-13T05:17:00.541Z,84.15
2023-02-13T05:18:00.455Z,84.15
2023-02-13T05:19:00.445Z,84.15
2023-02-13T05:20:00.446Z,84.36
2023-02-13T05:21:00.464Z,84.56
2023-02-13T05:22:00.475Z,84.45
2023-02-13T05:23:00.405Z,84.45
2023-02-13T05:24:00.375Z,84.56
2023-02-13T05:25:00.392Z,84.56
2023-02-13T05:26:00.373Z,84.56
2023-02-13T05:27:00.360Z,84.45
2023-02-13T05:28:00.485Z,84.25
2023-02-13T05:29:00.343Z,84.45
2023-02-13T05:30:00.341Z,84.36
2023-02-13T05:31:00.814Z,84.36
2023-02-13T05:32:00.555Z,84.56
2023-02-13T05:33:00.310Z,84.60
2023-02-13T05:34:00.285Z,84.77
2023-02-13T05:35:02.056Z,84.70
2023-02-13T05:36:00.253Z,84.70
2023-02-13T05:37:00.249Z,84.87
2023-02-13T05:38:00.274Z,84.77
2023-02-13T05:39:00.233Z,84.66
2023-02-13T05:40:00.220Z,84.66
2023-02-13T05:41:00.196Z,84.39
2023-02-13T05:42:00.207Z,84.29
2023-02-13T05:43:00.205Z,84.60
2023-02-13T05:44:00.190Z,84.60
2023-02-13T05:45:00.199Z,84.60
2023-02-13T05:46:00.180Z,84.70
2023-02-13T05:47:00.123Z,84.81
2023-02-13T05:48:00.126Z,84.60
2023-02-13T05:49:00.155Z,84.50
2023-02-13T05:50:00.187Z,84.39
2023-02-13T05:51:00.104Z,84.39
2023-02-13T05:52:00.068Z,84.29
2023-02-13T05:53:00.051Z,84.39
2023-02-13T05:54:00.063Z,84.39
2023-02-13T05:55:00.058Z,84.50
2023-02-13T05:56:00.029Z,84.50
2023-02-13T05:57:00.018Z,84.60
2023-02-13T05:58:00.074Z,84.39
2023-02-13T05:58:59.994Z,84.39
2023-02-13T05:59:59.963Z,84.39
2023-02-13T06:01:00.248Z,84.43
2023-02-13T06:01:59.934Z,84.53
2023-02-13T06:03:00.023Z,84.74
2023-02-13T06:04:02.637Z,84.81
2023-02-13T06:04:59.925Z,84.70
2023-02-13T06:05:59.917Z,84.74
2023-02-13T06:06:59.884Z,84.84
2023-02-13T06:07:59.867Z,84.74
2023-02-13T06:08:59.865Z,84.84
2023-02-13T06:09:59.891Z,84.84
2023-02-13T06:11:00.200Z,84.95
2023-02-13T06:11:59.857Z,84.95
2023-02-13T06:12:59.842Z,84.95
2023-02-13T06:13:59.807Z,85.05
2023-02-13T06:14:59.764Z,84.95
2023-02-13T06:15:59.846Z,85.05
2023-02-13T06:16:59.750Z,85.16
2023-02-13T06:17:59.756Z,84.95
2023-02-13T06:18:59.783Z,84.95
2023-02-13T06:19:59.727Z,84.84
2023-02-13T06:20:59.890Z,84.84
2023-02-13T06:21:59.727Z,85.09
2023-02-13T06:22:59.711Z,85.30
2023-02-13T06:23:59.665Z,85.40
2023-02-13T06:24:59.690Z,85.30
2023-02-13T06:25:59.662Z,85.50
2023-02-13T06:26:59.655Z,85.50
2023-02-13T06:27:59.799Z,85.61
2023-02-13T06:28:59.645Z,85.71
2023-02-13T06:29:59.599Z,85.71
2023-02-13T06:31:00.155Z,85.61
2023-02-13T06:31:59.668Z,85.71
2023-02-13T06:32:59.565Z,85.61
2023-02-13T06:33:59.583Z,85.71
2023-02-13T06:34:59.562Z,85.82
2023-02-13T06:35:59.560Z,85.92
2023-02-13T06:36:59.538Z,86.02
2023-02-13T06:37:59.542Z,86.13
2023-02-13T06:38:59.507Z,85.82
2023-02-13T06:39:59.636Z,85.71
2023-02-13T06:40:59.886Z,85.71
2023-02-13T06:41:59.509Z,85.82
2023-02-13T06:42:59.453Z,85.92
2023-02-13T06:43:59.443Z,86.02
2023-02-13T06:44:59.451Z,85.92
2023-02-13T06:45:59.458Z,86.07
2023-02-13T06:46:59.569Z,86.27
2023-02-13T06:47:59.513Z,86.37
2023-02-13T06:48:59.465Z,86.47
2023-02-13T06:49:59.372Z,86.68
2023-02-13T06:50:59.709Z,86.79
2023-02-13T06:51:59.342Z,86.58
2023-02-13T06:52:59.341Z,86.27
2023-02-13T06:53:59.370Z,86.27
2023-02-13T06:54:59.304Z,86.23
2023-02-13T06:55:59.320Z,86.23
2023-02-13T06:56:59.317Z,86.23
2023-02-13T06:57:59.283Z,86.02
2023-02-13T06:58:59.283Z,86.02
2023-02-13T06:59:59.258Z,86.13
2023-02-13T07:00:59.653Z,86.23
2023-02-13T07:01:59.241Z,86.33
2023-02-13T07:02:59.321Z,86.33
2023-02-13T07:03:59.237Z,86.33
2023-02-13T07:04:59.472Z,86.54
2023-02-13T07:05:59.218Z,86.54
2023-02-13T07:06:59.181Z,86.54
2023-02-13T07:07:59.180Z,86.44
2023-02-13T07:08:59.137Z,86.44
2023-02-13T07:09:59.156Z,86.33
2023-02-13T07:10:59.493Z,86.23
2023-02-13T07:11:59.141Z,86.33
2023-02-13T07:13:05.773Z,86.23
2023-02-13T07:14:00.115Z,86.02
2023-02-13T07:14:59.128Z,86.02
2023-02-13T07:15:59.133Z,86.13
2023-02-13T07:16:59.066Z,86.13
2023-02-13T07:17:59.042Z,86.23
2023-02-13T07:18:59.049Z,86.23
2023-02-13T07:19:59.042Z,86.23
2023-02-13T07:20:59.196Z,86.33
2023-02-13T07:21:59.027Z,86.54
2023-02-13T07:22:58.995Z,86.65
2023-02-13T07:23:58.988Z,86.75
2023-02-13T07:24:59.021Z,86.44
2023-02-13T07:25:58.984Z,86.13
2023-02-13T07:26:58.947Z,85.78
2023-02-13T07:27:58.922Z,85.68
2023-02-13T07:29:10.455Z,85.57
2023-02-13T07:29:59.926Z,85.57
2023-02-13T07:30:59.344Z,85.30
2023-02-13T07:31:58.961Z,85.50
2023-02-13T07:32:58.893Z,85.40
2023-02-13T07:33:58.857Z,85.50
2023-02-13T07:35:02.451Z,85.61
2023-02-13T07:35:58.912Z,85.61
2023-02-13T07:36:58.898Z,85.61
2023-02-13T07:37:58.828Z,85.57
2023-02-13T07:38:58.818Z,85.16
2023-02-13T07:39:58.798Z,85.09
2023-02-13T07:40:59.235Z,85.19
2023-02-13T07:41:58.816Z,85.19
2023-02-13T07:42:58.775Z,85.09
2023-02-13T07:43:58.748Z,84.99
2023-02-13T07:44:58.740Z,84.99
2023-02-13T07:45:59.071Z,85.09
2023-02-13T07:46:58.903Z,85.19
2023-02-13T07:47:58.723Z,84.88
2023-02-13T07:48:58.679Z,84.78
2023-02-13T07:49:58.686Z,84.88
2023-02-13T07:50:58.999Z,84.99
2023-02-13T07:51:58.715Z,84.88
2023-02-13T07:52:58.686Z,84.99
2023-02-13T07:53:58.666Z,84.88
2023-02-13T07:54:58.639Z,84.95
2023-02-13T07:55:58.836Z,84.84
2023-02-13T07:56:58.626Z,84.53
2023-02-13T07:57:58.646Z,84.33
2023-02-13T07:58:58.614Z,84.27
2023-02-13T07:59:58.566Z,84.37
2023-02-13T08:00:58.543Z,84.47
2023-02-13T08:01:58.660Z,84.68
2023-02-13T08:02:58.531Z,84.53
2023-02-13T08:03:58.549Z,84.22
2023-02-13T08:04:58.645Z,84.12
2023-02-13T08:05:58.913Z,84.12
2023-02-13T08:06:58.509Z,84.06
2023-02-13T08:07:58.529Z,84.16
2023-02-13T08:08:58.462Z,84.27
2023-02-13T08:09:58.446Z,84.33
2023-02-13T08:10:58.426Z,84.53
2023-02-13T08:11:58.460Z,84.43
2023-02-13T08:12:58.438Z,84.06
2023-02-13T08:13:58.383Z,84.22
2023-02-13T08:14:58.418Z,84.27
2023-02-13T08:15:58.680Z,84.22
2023-02-13T08:16:58.353Z,84.22
2023-02-13T08:17:58.373Z,84.22
2023-02-13T08:18:58.337Z,84.12
2023-02-13T08:19:58.306Z,83.91
2023-02-13T08:20:58.359Z,83.91
2023-02-13T08:21:58.313Z,83.61
2023-02-13T08:22:58.274Z,83.61
2023-02-13T08:23:58.321Z,83.50
2023-02-13T08:24:58.258Z,83.50
2023-02-13T08:25:58.515Z,83.81
2023-02-13T08:26:58.264Z,83.91
2023-02-13T08:27:58.228Z,84.01
2023-02-13T08:28:58.219Z,83.91
2023-02-13T08:29:58.288Z,83.81
2023-02-13T08:30:58.244Z,83.71
2023-02-13T08:31:58.196Z,83.71
2023-02-13T08:32:58.178Z,83.71
2023-02-13T08:33:58.153Z,83.71
2023-02-13T08:34:58.140Z,83.81
2023-02-13T08:35:58.429Z,83.71
2023-02-13T08:36:58.119Z,83.61
2023-02-13T08:37:58.104Z,83.71
2023-02-13T08:38:58.116Z,83.71
2023-02-13T08:39:58.080Z,83.81
2023-02-13T08:40:58.348Z,83.87
2023-02-13T08:41:58.058Z,83.67
2023-02-13T08:42:58.081Z,83.25
2023-02-13T08:43:58.042Z,83.15
2023-02-13T08:44:58.876Z,83.25
2023-02-13T08:45:58.393Z,83.25
2023-02-13T08:46:58.009Z,83.50
2023-02-13T08:47:57.969Z,83.61
2023-02-13T08:48:58.023Z,83.50
2023-02-13T08:49:57.961Z,83.50
2023-02-13T08:50:57.985Z,83.46
2023-02-13T08:51:57.986Z,83.25
2023-02-13T08:52:57.919Z,83.05
2023-02-13T08:53:57.916Z,83.05
2023-02-13T08:54:57.891Z,82.84
2023-02-13T08:55:58.364Z,82.74
2023-02-13T08:56:58.711Z,82.64
2023-02-13T08:57:57.903Z,82.60
2023-02-13T08:58:57.864Z,82.50
2023-02-13T08:59:57.845Z,82.18
2023-02-13T09:00:57.882Z,81.98
2023-02-13T09:01:57.847Z,82.18
2023-02-13T09:02:57.864Z,82.18
2023-02-13T09:03:57.837Z,82.29
2023-02-13T09:04:57.773Z,82.29
2023-02-13T09:05:58.094Z,82.08
2023-02-13T09:06:57.765Z,81.98
2023-02-13T09:07:57.828Z,81.56
2023-02-13T09:08:57.779Z,81.46
2023-02-13T09:09:57.703Z,81.87
2023-02-13T09:10:57.727Z,81.67
2023-02-13T09:11:57.698Z,81.67
2023-02-13T09:12:57.706Z,81.46
2023-02-13T09:13:57.685Z,81.46
2023-02-13T09:14:57.688Z,81.67
2023-02-13T09:15:57.955Z,81.67
2023-02-13T09:16:57.685Z,81.42
2023-02-13T09:17:57.652Z,81.32
2023-02-13T09:18:57.625Z,81.42
2023-02-13T09:19:57.621Z,81.01
2023-02-13T09:20:57.629Z,80.90
2023-02-13T09:21:57.622Z,80.80
2023-02-13T09:22:57.549Z,80.80
2023-02-13T09:23:57.558Z,80.60
2023-02-13T09:24:57.528Z,80.35
2023-02-13T09:25:57.901Z,80.25
2023-02-13T09:26:57.537Z,80.04
2023-02-13T09:27:57.548Z,80.29
2023-02-13T09:28:57.518Z,80.60
2023-02-13T09:29:57.515Z,80.90
2023-02-13T09:30:57.576Z,80.80
2023-02-13T09:31:57.670Z,80.80
2023-02-13T09:32:57.447Z,80.49
2023-02-13T09:33:57.480Z,80.18
2023-02-13T09:34:57.435Z,80.39
2023-02-13T09:35:57.730Z,80.39
2023-02-13T09:36:57.418Z,80.70
2023-02-13T09:37:57.393Z,80.60
2023-02-13T09:38:57.383Z,80.49
2023-02-13T09:39:57.388Z,80.56
2023-02-13T09:40:57.365Z,80.25
2023-02-13T09:41:57.595Z,80.15
2023-02-13T09:42:57.379Z,80.25
2023-02-13T09:43:57.323Z,80.04
2023-02-13T09:44:57.296Z,80.04
2023-02-13T09:45:57.737Z,79.94
2023-02-13T09:46:57.294Z,80.25
2023-02-13T09:47:57.266Z,79.80
2023-02-13T09:48:57.288Z,79.49
2023-02-13T09:49:57.250Z,79.28
2023-02-13T09:50:57.264Z,78.97
2023-02-13T09:51:57.236Z,79.35
2023-02-13T09:52:57.218Z,79.04
2023-02-13T09:53:57.225Z,78.73
2023-02-13T09:54:57.173Z,78.52
2023-02-13T09:55:57.578Z,78.11
2023-02-13T09:56:57.178Z,78.52
2023-02-13T09:57:57.139Z,78.31
2023-02-13T09:58:57.162Z,78.63
2023-02-13T09:59:57.176Z,78.63
2023-02-13T10:00:57.106Z,78.31
2023-02-13T10:01:57.219Z,78.42
2023-02-13T10:02:57.101Z,78.73
2023-02-13T10:03:57.121Z,78.63
2023-02-13T10:04:57.193Z,78.42
2023-02-13T10:05:57.465Z,78.18
2023-02-13T10:06:57.045Z,78.28
2023-02-13T10:07:57.040Z,78.18
2023-02-13T10:08:57.009Z,77.97
2023-02-13T10:09:57.042Z,78.08
2023-02-13T10:10:57.017Z,77.76
2023-02-13T10:11:56.993Z,77.66
2023-02-13T10:12:56.976Z,77.56
2023-02-13T10:13:56.940Z,77.31
2023-02-13T10:14:57.028Z,77.22
2023-02-13T10:15:57.267Z,77.31
2023-02-13T10:16:56.945Z,77.22
2023-02-13T10:17:56.915Z,77.31
2023-02-13T10:18:56.895Z,77.01
2023-02-13T10:19:56.922Z,77.01
2023-02-13T10:20:56.925Z,77.11
2023-02-13T10:21:56.885Z,76.90
2023-02-13T10:22:56.891Z,76.87
2023-02-13T10:23:56.882Z,76.76
2023-02-13T10:24:56.869Z,76.56
2023-02-13T10:25:57.474Z,76.56
2023-02-13T10:26:56.814Z,76.66
2023-02-13T10:27:56.784Z,76.56
2023-02-13T10:28:56.809Z,76.25
2023-02-13T10:29:56.791Z,76.25
2023-02-13T10:30:56.891Z,76.25
2023-02-13T10:31:56.851Z,76.35
2023-02-13T10:32:56.745Z,76.15
2023-02-13T10:33:56.759Z,76.25
2023-02-13T10:34:56.739Z,76.04
2023-02-13T10:35:57.140Z,76.25
2023-02-13T10:36:56.713Z,76.15
2023-02-13T10:37:56.683Z,75.94
2023-02-13T10:38:56.675Z,76.15
2023-02-13T10:39:56.677Z,75.84
2023-02-13T10:40:56.652Z,75.84
2023-02-13T10:41:56.685Z,76.25
2023-02-13T10:42:56.663Z,76.25
2023-02-13T10:43:56.638Z,76.04
2023-02-13T10:44:56.618Z,76.25
2023-02-13T10:45:56.860Z,76.04
2023-02-13T10:46:56.694Z,76.04
2023-02-13T10:47:56.618Z,76.04
2023-02-13T10:48:56.558Z,76.39
2023-02-13T10:49:56.562Z,76.39
2023-02-13T10:50:56.547Z,76.59
2023-02-13T10:51:57.508Z,76.90
2023-02-13T10:52:56.560Z,77.01
2023-02-13T10:53:56.531Z,76.76
2023-02-13T10:54:56.516Z,76.46
2023-02-13T10:55:56.851Z,76.35
2023-02-13T10:56:56.488Z,76.11
2023-02-13T10:57:56.451Z,75.90
2023-02-13T10:58:56.518Z,75.81
2023-02-13T10:59:56.443Z,75.81
2023-02-13T11:00:56.424Z,75.81
2023-02-13T11:01:56.521Z,75.70
2023-02-13T11:02:56.380Z,75.90
2023-02-13T11:03:56.463Z,75.49
2023-02-13T11:04:56.383Z,75.49
2023-02-13T11:05:56.943Z,75.49
2023-02-13T11:06:56.354Z,75.29
2023-02-13T11:07:56.337Z,75.08
2023-02-13T11:08:56.301Z,75.05
2023-02-13T11:09:56.335Z,74.95
2023-02-13T11:10:56.306Z,74.63
2023-02-13T11:11:56.305Z,74.74
2023-02-13T11:12:56.295Z,74.63
2023-02-13T11:13:56.274Z,74.57
2023-02-13T11:14:56.247Z,74.77
2023-02-13T11:15:56.754Z,74.98
2023-02-13T11:16:56.238Z,75.18
2023-02-13T11:17:56.262Z,75.08
2023-02-13T11:18:56.271Z,75.08
2023-02-13T11:19:56.174Z,74.77
2023-02-13T11:20:56.163Z,75.18
2023-02-13T11:21:56.155Z,75.15
2023-02-13T11:22:56.142Z,74.88
2023-02-13T11:23:56.185Z,74.88
2023-02-13T11:24:56.157Z,75.39
2023-02-13T11:25:56.519Z,75.29
2023-02-13T11:26:56.123Z,75.29
2023-02-13T11:27:56.093Z,75.18
2023-02-13T11:28:56.118Z,75.35
2023-02-13T11:29:56.088Z,75.67
2023-02-13T11:30:56.239Z,75.56
2023-02-13T11:31:56.168Z,74.84
2023-02-13T11:32:56.049Z,74.80
2023-02-13T11:33:58.590Z,74.60
2023-02-13T11:34:56.020Z,74.19
2023-02-13T11:35:56.313Z,73.85
2023-02-13T11:36:56.027Z,73.44
2023-02-13T11:37:56.028Z,73.64
2023-02-13T11:38:55.956Z,73.33
2023-02-13T11:39:55.969Z,73.13
2023-02-13T11:40:55.949Z,72.81
2023-02-13T11:41:55.991Z,73.23
2023-02-13T11:42:55.918Z,73.40
2023-02-13T11:43:55.914Z,72.81
2023-02-13T11:44:55.919Z,73.09
2023-02-13T11:45:55.956Z,72.38
2023-02-13T11:46:55.980Z,72.47
2023-02-13T11:47:55.920Z,72.92
2023-02-13T11:48:55.841Z,72.72
2023-02-13T11:49:55.858Z,73.02
2023-02-13T11:50:55.825Z,73.02
2023-02-13T11:51:55.852Z,73.02
2023-02-13T11:52:55.814Z,72.81
2023-02-13T11:53:55.821Z,72.81
2023-02-13T11:54:55.782Z,72.92
2023-02-13T11:55:56.260Z,73.02
2023-02-13T11:57:10.587Z,73.23
2023-02-13T11:57:56.756Z,72.99
2023-02-13T11:58:55.843Z,72.89
2023-02-13T11:59:55.760Z,72.58
2023-02-13T12:00:55.781Z,72.68
2023-02-13T12:01:55.700Z,73.09
2023-02-13T12:02:55.901Z,72.47
2023-02-13T12:03:55.757Z,72.58
2023-02-13T12:04:55.690Z,72.27
2023-02-13T12:05:56.127Z,72.47
2023-02-13T12:06:55.654Z,72.68
2023-02-13T12:07:55.631Z,72.89
2023-02-13T12:08:55.643Z,72.34
2023-02-13T12:09:55.646Z,72.44
2023-02-13T12:10:55.731Z,71.93
2023-02-13T12:11:55.635Z,71.83
2023-02-13T12:12:55.624Z,71.96
2023-02-13T12:13:55.614Z,72.38
2023-02-13T12:14:55.555Z,72.06
2023-02-13T12:15:55.781Z,72.38
2023-02-13T12:16:55.634Z,71.96
2023-02-13T12:17:55.549Z,71.83
2023-02-13T12:18:55.526Z,72.03
2023-02-13T12:19:55.494Z,71.62
2023-02-13T12:20:55.964Z,71.62
2023-02-13T12:21:55.724Z,71.41
2023-02-13T12:22:55.515Z,71.41
2023-02-13T12:23:55.473Z,71.66
2023-02-13T12:24:55.462Z,72.38
2023-02-13T12:25:55.455Z,72.38
2023-02-13T12:26:55.418Z,72.06
2023-02-13T12:27:55.432Z,71.93
2023-02-13T12:28:55.557Z,71.62
2023-02-13T12:29:55.416Z,71.38
2023-02-13T12:30:55.451Z,71.38
2023-02-13T12:31:55.442Z,71.08
2023-02-13T12:32:55.334Z,70.97
2023-02-13T12:33:55.359Z,71.08
2023-02-13T12:34:55.330Z,70.94
2023-02-13T12:35:55.319Z,70.36
2023-02-13T12:36:55.287Z,70.66
2023-02-13T12:37:55.341Z,70.53
2023-02-13T12:38:55.257Z,70.42
2023-02-13T12:39:55.260Z,70.53
2023-02-13T12:40:55.312Z,70.22
2023-02-13T12:41:55.291Z,70.42
2023-02-13T12:42:55.220Z,69.91
2023-02-13T12:43:55.276Z,69.60
2023-02-13T12:44:55.241Z,70.01
2023-02-13T12:45:55.205Z,70.53
2023-02-13T12:46:55.202Z,70.01
2023-02-13T12:47:55.312Z,70.12
2023-02-13T12:48:55.173Z,69.91
2023-02-13T12:49:55.173Z,70.32
2023-02-13T12:50:55.266Z,70.22
2023-02-13T12:51:55.120Z,70.32